createdAt,value
2022-10-17T00:01:55.674Z,96463.34
2022-10-17T00:06:57.417Z,96472.44
2022-10-17T00:11:59.755Z,96467.00
2022-10-17T00:17:02.031Z,96468.63
2022-10-17T00:22:03.666Z,96481.31
2022-10-17T00:27:05.487Z,96486.13
2022-10-17T00:32:07.167Z,96493.28
2022-10-17T00:37:08.883Z,96496.13
2022-10-17T00:42:13.450Z,96498.97
2022-10-17T00:47:19.739Z,96495.47
2022-10-17T00:52:24.950Z,96502.25
2022-10-17T00:57:29.650Z,96496.03
2022-10-17T01:02:31.459Z,96499.59
2022-10-17T01:07:37.156Z,96498.13
2022-10-17T01:13:14.677Z,96506.47
2022-10-17T01:18:34.499Z,96513.25
2022-10-17T01:24:06.151Z,96507.78
2022-10-17T01:29:53.049Z,96498.06
2022-10-17T01:35:04.273Z,96486.25
2022-10-17T01:40:11.261Z,96489.09
2022-10-17T01:45:19.996Z,96491.09
2022-10-17T01:50:28.270Z,96483.66
2022-10-17T01:55:36.779Z,96490.00
2022-10-17T02:00:44.115Z,96499.47
2022-10-17T02:05:46.170Z,96482.97
2022-10-17T02:10:59.659Z,96483.38
2022-10-17T02:16:26.133Z,96477.94
2022-10-17T02:21:36.546Z,96487.03
2022-10-17T02:27:00.936Z,96479.59
2022-10-17T02:37:30.359Z,96497.41
2022-10-17T02:42:33.918Z,96490.72
2022-10-17T02:47:42.413Z,96491.16
2022-10-17T02:52:55.722Z,96491.56
2022-10-17T02:58:02.807Z,96487.25
2022-10-17T03:03:21.019Z,96491.19
2022-10-17T03:08:23.871Z,96486.50
2022-10-17T03:13:25.589Z,96486.56
2022-10-17T03:18:29.458Z,96492.50
2022-10-17T03:23:36.855Z,96494.88
2022-10-17T03:28:40.493Z,96492.56
2022-10-17T03:33:43.717Z,96500.88
2022-10-17T03:38:46.164Z,96505.69
2022-10-17T03:43:48.638Z,96507.69
2022-10-17T03:48:50.778Z,96519.97
2022-10-17T03:53:52.824Z,96513.72
2022-10-17T03:58:56.999Z,96514.53
2022-10-17T04:03:59.022Z,96526.78
2022-10-17T04:09:06.720Z,96529.94
2022-10-17T04:14:18.426Z,96533.53
2022-10-17T04:19:20.896Z,96534.72
2022-10-17T04:24:23.121Z,96542.63
2022-10-17T04:29:53.977Z,96537.94
2022-10-17T04:34:58.575Z,96537.16
2022-10-17T04:40:02.615Z,96533.25
2022-10-17T04:45:07.595Z,96543.91
2022-10-17T04:50:11.058Z,96537.25
2022-10-17T04:55:14.807Z,96537.66
2022-10-17T05:00:18.819Z,96544.38
2022-10-17T05:05:27.752Z,96537.69
2022-10-17T05:10:31.505Z,96540.81
2022-10-17T05:15:34.053Z,96544.00
2022-10-17T05:20:36.962Z,96553.47
2022-10-17T05:25:38.739Z,96554.66
2022-10-17T05:30:40.392Z,96559.81
2022-10-17T05:35:43.833Z,96551.16
2022-10-17T05:40:45.639Z,96563.00
2022-10-17T05:45:47.331Z,96560.66
2022-10-17T05:51:09.808Z,96573.28
2022-10-17T05:56:15.532Z,96580.44
2022-10-17T06:01:17.638Z,96582.44
2022-10-17T06:06:19.714Z,96593.50
2022-10-17T06:11:23.045Z,96596.66
2022-10-17T06:16:25.280Z,96595.50
2022-10-17T06:21:28.399Z,96603.78
2022-10-17T06:26:40.161Z,96601.03
2022-10-17T06:31:43.326Z,96604.16
2022-10-17T06:36:45.570Z,96603.75
2022-10-17T06:41:48.333Z,96609.63
2022-10-17T06:46:53.699Z,96604.88
2022-10-17T06:51:56.621Z,96614.25
2022-10-17T06:57:07.095Z,96616.19
2022-10-17T07:02:32.793Z,96621.63
2022-10-17T07:07:40.027Z,96626.69
2022-10-17T07:12:46.109Z,96622.69
2022-10-17T07:17:51.679Z,96634.38
2022-10-17T07:22:54.233Z,96647.72
2022-10-17T07:27:56.147Z,96651.53
2022-10-17T07:32:58.181Z,96651.81
2022-10-17T07:37:59.852Z,96661.59
2022-10-17T07:43:01.943Z,96665.81
2022-10-17T07:48:04.867Z,96659.44
2022-10-17T07:53:06.918Z,96668.78
2022-10-17T07:58:09.924Z,96666.72
2022-10-17T08:03:11.665Z,96669.44
2022-10-17T08:08:13.415Z,96665.78
2022-10-17T08:13:15.057Z,96671.22
2022-10-17T08:18:17.733Z,96670.38
2022-10-17T08:23:19.303Z,96672.72
2022-10-17T08:28:21.321Z,96667.16
2022-10-17T08:33:23.057Z,96668.72
2022-10-17T08:38:27.747Z,96671.44
2022-10-17T08:44:13.333Z,96678.91
2022-10-17T08:49:37.282Z,96672.53
2022-10-17T08:54:43.135Z,96677.59
2022-10-17T08:59:50.158Z,96673.59
2022-10-17T09:04:59.319Z,96673.47
2022-10-17T09:10:19.511Z,96671.75
2022-10-17T09:15:44.929Z,96675.97
2022-10-17T09:20:58.406Z,96670.28
2022-10-17T09:26:01.910Z,96680.34
2022-10-17T09:31:03.400Z,96679.75
2022-10-17T09:36:13.078Z,96683.91
2022-10-17T09:41:51.535Z,96692.88
2022-10-17T09:47:30.099Z,96693.94
2022-10-17T09:52:41.036Z,96692.66
2022-10-17T09:57:56.771Z,96697.72
2022-10-17T10:03:22.992Z,96698.84
2022-10-17T10:08:28.955Z,96687.28
2022-10-17T10:13:33.259Z,96693.88
2022-10-17T10:18:36.242Z,96695.03
2022-10-17T10:23:40.619Z,96699.25
2022-10-17T10:28:52.018Z,96695.50
2022-10-17T10:33:57.518Z,96694.44
2022-10-17T10:39:02.574Z,96693.81
2022-10-17T10:44:06.515Z,96684.06
2022-10-17T10:49:31.099Z,96681.41
2022-10-17T10:59:58.076Z,96683.19
2022-10-17T11:05:19.973Z,96685.41
2022-10-17T11:10:44.528Z,96683.59
2022-10-17T11:16:01.938Z,96677.09
2022-10-17T11:21:16.083Z,96677.00
2022-10-17T11:26:27.091Z,96667.28
2022-10-17T11:31:39.822Z,96665.91
2022-10-17T11:36:44.487Z,96669.63
2022-10-17T11:41:49.005Z,96669.28
2022-10-17T11:47:01.101Z,96668.97
2022-10-17T11:52:37.730Z,96665.19
2022-10-17T11:58:16.270Z,96656.19
2022-10-17T12:03:42.747Z,96656.34
2022-10-17T12:08:58.711Z,96647.38
2022-10-17T12:14:05.828Z,96653.84
2022-10-17T12:19:10.699Z,96642.88
2022-10-17T12:24:32.164Z,96637.44
2022-10-17T12:29:33.927Z,96637.91
2022-10-17T12:34:36.525Z,96631.38
2022-10-17T12:39:38.098Z,96626.13
2022-10-17T12:44:39.708Z,96627.25
2022-10-17T12:49:46.586Z,96631.16
2022-10-17T12:55:12.515Z,96625.94
2022-10-17T13:00:21.094Z,96625.38
2022-10-17T13:05:31.615Z,96626.06
2022-10-17T13:10:43.039Z,96631.16
2022-10-17T13:15:47.338Z,96633.63
2022-10-17T13:21:01.350Z,96640.06
2022-10-17T13:26:24.780Z,96644.84
2022-10-17T13:31:29.898Z,96647.06
2022-10-17T13:36:33.961Z,96643.31
2022-10-17T13:41:37.093Z,96641.84
2022-10-17T13:46:41.124Z,96644.28
2022-10-17T13:51:48.671Z,96644.84
2022-10-17T13:56:56.417Z,96638.94
2022-10-17T14:02:01.530Z,96638.69
2022-10-17T14:07:03.265Z,96648.16
2022-10-17T14:12:16.629Z,96647.94
2022-10-17T14:17:26.113Z,96649.97
2022-10-17T14:22:29.486Z,96647.84
2022-10-17T14:27:42.139Z,96655.84
2022-10-17T14:32:43.781Z,96645.56
2022-10-17T14:37:49.068Z,96648.41
2022-10-17T14:42:57.125Z,96654.06
2022-10-17T14:48:29.203Z,96653.06
2022-10-17T14:53:30.878Z,96649.56
2022-10-17T14:58:33.838Z,96660.00
2022-10-17T15:03:36.540Z,96677.72
2022-10-17T15:08:38.894Z,96676.81
2022-10-17T15:13:45.415Z,96686.63
2022-10-17T15:18:47.978Z,96670.66
2022-10-17T15:23:50.406Z,96673.44
2022-10-17T15:28:53.180Z,96693.44
2022-10-17T15:33:55.028Z,96700.69
2022-10-17T15:38:59.867Z,96703.16
2022-10-17T15:44:03.602Z,96702.94
2022-10-17T15:49:10.125Z,96697.94
2022-10-17T15:59:22.404Z,96696.41
2022-10-17T16:04:26.901Z,96694.75
2022-10-17T16:09:30.267Z,96693.56
2022-10-17T16:14:33.171Z,96713.97
2022-10-17T16:19:35.529Z,96718.53
2022-10-17T16:24:37.490Z,96723.00
2022-10-17T16:29:39.079Z,96723.09
2022-10-17T16:34:40.822Z,96718.75
2022-10-17T16:39:42.478Z,96724.72
2022-10-17T16:44:44.906Z,96728.22
2022-10-17T16:49:46.725Z,96719.06
2022-10-17T16:54:48.396Z,96724.16
2022-10-17T16:59:50.494Z,96724.44
2022-10-17T17:04:52.093Z,96733.84
2022-10-17T17:09:55.677Z,96728.59
2022-10-17T17:14:57.555Z,96727.66
2022-10-17T17:19:59.289Z,96736.22
2022-10-17T17:25:00.843Z,96737.28
2022-10-17T17:30:03.387Z,96730.78
2022-10-17T17:35:06.885Z,96733.38
2022-10-17T17:40:08.966Z,96741.88
2022-10-17T17:45:11.030Z,96738.06
2022-10-17T17:50:12.663Z,96743.78
2022-10-17T17:55:14.381Z,96752.25
2022-10-17T18:00:16.551Z,96742.47
2022-10-17T18:05:18.750Z,96751.75
2022-10-17T18:10:20.379Z,96756.25
2022-10-17T18:15:22.044Z,96751.19
2022-10-17T18:20:23.808Z,96767.53
2022-10-17T18:25:25.484Z,96767.25
2022-10-17T18:30:28.974Z,96759.09
2022-10-17T18:35:35.310Z,96764.72
2022-10-17T18:40:38.255Z,96761.66
2022-10-17T18:45:41.418Z,96769.28
2022-10-17T18:50:43.044Z,96765.44
2022-10-17T19:00:51.846Z,96768.41
2022-10-17T19:05:56.650Z,96778.44
2022-10-17T19:11:10.919Z,96778.94
2022-10-17T19:16:16.005Z,96777.44
2022-10-17T19:21:21.783Z,96775.16
2022-10-17T19:26:25.402Z,96793.06
2022-10-17T19:31:28.985Z,96800.31
2022-10-17T19:36:34.034Z,96796.41
2022-10-17T19:41:36.529Z,96796.91
2022-10-17T19:46:38.517Z,96805.31
2022-10-17T19:51:41.133Z,96803.88
2022-10-17T19:56:44.410Z,96807.91
2022-10-17T20:01:46.311Z,96804.06
2022-10-17T20:06:48.002Z,96807.31
2022-10-17T20:11:49.665Z,96801.03
2022-10-17T20:16:52.445Z,96796.44
2022-10-17T20:21:54.245Z,96817.47
2022-10-17T20:26:56.287Z,96810.00
2022-10-17T20:31:58.495Z,96810.47
2022-10-17T20:37:01.277Z,96813.31
2022-10-17T20:42:03.008Z,96818.88
2022-10-17T20:47:11.930Z,96818.94
2022-10-17T20:52:18.172Z,96812.25
2022-10-17T20:57:19.819Z,96804.00
2022-10-17T21:02:21.582Z,96817.97
2022-10-17T21:07:25.225Z,96812.06
2022-10-17T21:12:36.661Z,96814.47
2022-10-17T21:17:44.755Z,96818.88
2022-10-17T21:22:46.504Z,96819.28
2022-10-17T21:27:48.254Z,96817.72
2022-10-17T21:32:54.196Z,96824.06
2022-10-17T21:37:56.133Z,96824.94
2022-10-17T21:42:57.967Z,96832.91
2022-10-17T21:48:12.612Z,96836.56
2022-10-17T21:53:21.027Z,96832.66
2022-10-17T21:58:22.870Z,96831.56
2022-10-17T22:03:24.762Z,96829.25
2022-10-17T22:08:26.470Z,96827.72
2022-10-17T22:13:28.311Z,96826.56
2022-10-17T22:18:29.993Z,96821.88
2022-10-17T22:23:31.921Z,96814.41
2022-10-17T22:28:34.696Z,96816.38
2022-10-17T22:33:38.383Z,96821.56
2022-10-17T22:38:40.081Z,96818.81
2022-10-17T22:43:42.059Z,96812.13
2022-10-17T22:48:44.407Z,96811.75
2022-10-17T22:53:46.178Z,96808.66
2022-10-17T22:58:47.999Z,96807.50
2022-10-17T23:03:50.026Z,96798.81
2022-10-17T23:08:52.247Z,96790.16
2022-10-17T23:13:53.870Z,96792.53
2022-10-17T23:18:55.515Z,96794.94
2022-10-17T23:23:57.361Z,96778.78
2022-10-17T23:28:58.998Z,96780.34
2022-10-17T23:34:00.644Z,96781.97
2022-10-17T23:39:02.284Z,96782.38
2022-10-17T23:44:04.425Z,96776.06
2022-10-17T23:49:06.284Z,96784.75
2022-10-17T23:54:08.466Z,96780.84
2022-10-17T23:59:10.336Z,96781.25
